Main page
METAR-TAF:

METAR-TAF

Airports :

Jizan Regional Airport

Jizan, Saudi Arabia

latitude: 16-54N, longitude: 042-35E, elevation: 6 m

Current weather observation

The report was made 21 minutes ago, at 06:00 UTC
Calm wind
Temperature 36°C
Humidity 60%
Pressure 1007 hPa
Visibility: 9000 m

METAR: OEGN 240600Z 00000KT 9000 NSC 36/27 Q1007 NOSIG

Time: 09:21 (06:21 UTC)

Forecast

The report was made 7 hours and 21 minutes ago, at 23:00 UTC
Forecast valid from 24 at 00 UTC to 25 at 06 UTC
Wind 3 kt from variable directions
Visibility: 7000 m
Few clouds at a height of 3000 ft
Becoming
from 24 at 06 UTC to 24 at 08 UTC
Wind 12 kt from the West
Probability 30% :
Temporary
from 24 at 10 UTC to 24 at 18 UTC
Scattered clouds at a height of 3000 ft
Few clouds at a height of 3500 ft, Cumulonimbus.
Becoming
from 24 at 18 UTC to 24 at 20 UTC
Wind 3 kt from variable directions

TAF: OEGN 232300Z 2400/2506 VRB03KT 7000 FEW030 BECMG 2406/2408 28012KT PROB30 TEMPO 2410/2418 SCT030 FEW035CB BECMG 2418/2420 VRB03KT

Weather observations and forecasts of more than 4000 airports (METAR and TAF reports).

The available stations are represented by yellow and red dots on the map.

Hover mouse over dot to see the name of the station.

Then click to see weather observations and forecasts.

To change the map : click on the green buttons with a black cross to zoom in, on the green button with a dash to zoom out, or on the green arrows for adjacent maps.


METAR-TAF: